Terminal Aerodrome Forecast
Issued by NWS

Home | Current Version | Previous Version | Graphics & Text | Print | Product List | Glossary On
Versions: 1 2 3 4 5 6 7 8 9 10 11 12 13 14 15 16 17 18 19 20 21 22 23 24 25 26
822
FTUS43 KABR 131336 AAA
TAFPIR
TAF AMD
KPIR 131336Z 1314/1412 12011KT P6SM -SN OVC014
     FM132100 14018G25KT 5SM -FZRA OVC007
     FM140000 13017KT 1 1/2SM -SN BR OVC015
     FM140900 30012KT P6SM OVC025=

USA.gov is the U.S. government's official web portal to all federal, state and local government web resources and services.